createdAt,value
2019-03-28T00:00:53.714Z,22.62
2019-03-28T00:03:22.478Z,24.70
2019-03-28T00:05:50.914Z,27.67
2019-03-28T00:08:19.353Z,22.80
2019-03-28T00:10:47.800Z,26.70
2019-03-28T00:13:16.489Z,22.22
2019-03-28T00:15:45.180Z,23.55
2019-03-28T00:18:13.637Z,22.13
2019-03-28T00:20:42.461Z,29.20
2019-03-28T00:23:12.498Z,31.27
2019-03-28T00:25:41.297Z,20.77
2019-03-28T00:28:09.808Z,22.60
2019-03-28T00:30:38.214Z,20.60
2019-03-28T00:33:06.663Z,22.50
2019-03-28T00:35:35.153Z,21.73
2019-03-28T00:38:03.571Z,22.77
2019-03-28T00:40:32.033Z,28.75
2019-03-28T00:43:00.490Z,25.32
2019-03-28T00:45:28.902Z,24.32
2019-03-28T00:47:57.326Z,23.00
2019-03-28T00:50:25.839Z,25.82
2019-03-28T00:52:54.235Z,26.05
2019-03-28T00:55:22.745Z,24.45
2019-03-28T00:57:51.190Z,26.12
2019-03-28T01:00:20.850Z,27.58
2019-03-28T01:02:50.111Z,21.82
2019-03-28T01:05:18.559Z,21.48
2019-03-28T01:07:47.258Z,24.80
2019-03-28T01:10:15.903Z,27.65
2019-03-28T01:12:44.383Z,22.15
2019-03-28T01:15:13.157Z,22.45
2019-03-28T01:17:41.629Z,22.90
2019-03-28T01:20:10.633Z,24.72
2019-03-28T01:22:39.082Z,22.37
2019-03-28T01:25:07.633Z,23.32
2019-03-28T01:27:36.148Z,22.77
2019-03-28T01:30:07.053Z,24.47
2019-03-28T01:32:35.490Z,28.32
2019-03-28T01:35:04.577Z,22.02
2019-03-28T01:37:33.005Z,21.17
2019-03-28T01:40:01.418Z,25.15
2019-03-28T01:42:29.870Z,22.25
2019-03-28T01:44:58.299Z,24.85
2019-03-28T01:47:26.717Z,23.18
2019-03-28T01:49:55.137Z,24.35
2019-03-28T01:52:23.641Z,26.42
2019-03-28T01:54:52.043Z,20.32
2019-03-28T01:57:20.496Z,22.90
2019-03-28T01:59:48.893Z,23.25
2019-03-28T02:02:17.309Z,23.80
2019-03-28T02:04:45.721Z,27.93
2019-03-28T02:07:14.151Z,23.02
2019-03-28T02:09:42.602Z,24.18
2019-03-28T02:12:11.103Z,21.60
2019-03-28T02:14:39.606Z,20.92
2019-03-28T02:17:08.097Z,23.80
2019-03-28T02:19:36.566Z,21.85
2019-03-28T02:22:05.054Z,23.57
2019-03-28T02:24:33.502Z,22.17
2019-03-28T02:27:01.926Z,23.15
2019-03-28T02:29:30.357Z,22.58
2019-03-28T02:31:58.766Z,20.92
2019-03-28T02:34:27.286Z,23.00
2019-03-28T02:36:55.800Z,20.72
2019-03-28T02:39:24.531Z,26.65
2019-03-28T02:41:53.217Z,19.77
2019-03-28T02:44:21.633Z,26.10
2019-03-28T02:46:50.108Z,21.42
2019-03-28T02:49:19.709Z,21.93
2019-03-28T02:51:48.638Z,20.82
2019-03-28T02:54:17.072Z,23.30
2019-03-28T02:56:45.493Z,19.73
2019-03-28T02:59:13.951Z,24.92
2019-03-28T03:01:42.414Z,27.37
2019-03-28T03:04:11.185Z,25.23
2019-03-28T03:06:39.603Z,24.95
2019-03-28T03:09:10.220Z,28.07
2019-03-28T03:11:42.482Z,21.62
2019-03-28T03:14:08.978Z,25.92
2019-03-28T03:16:37.362Z,20.08
2019-03-28T03:19:05.980Z,20.15
2019-03-28T03:21:35.928Z,20.37
2019-03-28T03:24:04.960Z,17.32
2019-03-28T03:26:33.649Z,16.57
2019-03-28T03:29:02.179Z,19.40
2019-03-28T03:31:30.646Z,16.82
2019-03-28T03:33:59.527Z,18.15
2019-03-28T03:36:27.966Z,16.77
2019-03-28T03:38:56.477Z,18.65
2019-03-28T03:41:24.903Z,16.77
2019-03-28T03:43:53.339Z,23.12
2019-03-28T03:46:21.859Z,21.20
2019-03-28T03:48:50.330Z,21.07
2019-03-28T03:51:18.768Z,18.92
2019-03-28T03:53:47.199Z,20.45
2019-03-28T03:56:15.608Z,19.90
2019-03-28T03:58:44.064Z,27.37
2019-03-28T04:01:12.544Z,18.57
2019-03-28T04:03:40.968Z,16.30
2019-03-28T04:06:09.412Z,14.87
2019-03-28T04:08:37.826Z,18.12
2019-03-28T04:11:06.313Z,18.92
2019-03-28T04:13:34.785Z,17.95
2019-03-28T04:16:03.901Z,24.00
2019-03-28T04:18:32.470Z,20.82
2019-03-28T04:21:00.873Z,20.80
2019-03-28T04:23:29.769Z,17.27
2019-03-28T04:25:58.400Z,22.50
2019-03-28T04:28:31.961Z,24.15
2019-03-28T04:30:56.969Z,19.77
2019-03-28T04:33:25.375Z,21.82
2019-03-28T04:35:53.860Z,17.67
2019-03-28T04:38:22.292Z,18.30
2019-03-28T04:40:50.881Z,25.48
2019-03-28T04:43:19.715Z,17.73
2019-03-28T04:45:48.148Z,20.97
2019-03-28T04:48:16.567Z,17.90
2019-03-28T04:50:44.990Z,22.77
2019-03-28T04:53:13.423Z,17.00
2019-03-28T04:55:42.114Z,21.12
2019-03-28T04:58:10.535Z,20.12
2019-03-28T05:00:38.991Z,18.50
2019-03-28T05:03:07.401Z,22.32
2019-03-28T05:05:35.817Z,18.80
2019-03-28T05:08:04.244Z,25.15
2019-03-28T05:10:33.207Z,22.75
2019-03-28T05:13:02.091Z,19.40
2019-03-28T05:15:30.781Z,27.45
2019-03-28T05:17:59.246Z,21.42
2019-03-28T05:20:27.686Z,22.82
2019-03-28T05:22:56.198Z,24.45
2019-03-28T05:25:24.614Z,24.18
2019-03-28T05:27:53.025Z,23.67
2019-03-28T05:30:21.441Z,24.35
2019-03-28T05:32:49.842Z,21.35
2019-03-28T05:35:18.263Z,24.07
2019-03-28T05:37:46.753Z,27.05
2019-03-28T05:40:15.178Z,25.12
2019-03-28T05:42:43.909Z,21.62
2019-03-28T05:45:14.247Z,22.40
2019-03-28T05:47:42.657Z,23.35
2019-03-28T05:50:11.144Z,28.35
2019-03-28T05:52:39.659Z,24.37
2019-03-28T05:55:08.249Z,27.10
2019-03-28T05:57:36.794Z,29.70
2019-03-28T06:00:07.061Z,24.92
2019-03-28T06:02:35.485Z,27.45
2019-03-28T06:05:06.227Z,25.05
2019-03-28T06:07:34.802Z,26.57
2019-03-28T06:10:05.153Z,29.50
2019-03-28T06:12:33.591Z,28.32
2019-03-28T06:15:02.068Z,27.17
2019-03-28T06:17:30.489Z,24.95
2019-03-28T06:19:58.931Z,24.32
2019-03-28T06:22:27.429Z,35.15
2019-03-28T06:24:56.373Z,27.37
2019-03-28T06:27:24.845Z,30.95
2019-03-28T06:29:53.556Z,27.77
2019-03-28T06:32:21.993Z,24.40
2019-03-28T06:34:50.687Z,36.00
2019-03-28T06:37:19.165Z,30.05
2019-03-28T06:39:47.562Z,27.32
2019-03-28T06:42:16.013Z,33.88
2019-03-28T06:44:44.444Z,32.80
2019-03-28T06:47:12.973Z,30.88
2019-03-28T06:49:41.757Z,34.30
2019-03-28T06:52:10.834Z,36.25
2019-03-28T06:54:39.264Z,30.27
2019-03-28T06:57:07.707Z,34.43
2019-03-28T06:59:37.575Z,34.48
2019-03-28T07:02:06.581Z,25.97
2019-03-28T07:04:35.135Z,32.73
2019-03-28T07:07:03.554Z,31.27
2019-03-28T07:09:31.962Z,39.83
2019-03-28T07:12:00.448Z,39.78
2019-03-28T07:14:28.874Z,35.17
2019-03-28T07:16:57.289Z,37.50
2019-03-28T07:19:25.764Z,30.45
2019-03-28T07:21:54.237Z,36.25
2019-03-28T07:24:22.986Z,37.20
2019-03-28T07:26:51.698Z,39.63
2019-03-28T07:29:21.016Z,36.08
2019-03-28T07:31:49.449Z,34.17
2019-03-28T07:34:17.904Z,33.37
2019-03-28T07:36:46.469Z,39.57
2019-03-28T07:39:15.058Z,36.70
2019-03-28T07:41:43.507Z,39.80
2019-03-28T07:44:11.943Z,32.80
2019-03-28T07:46:40.365Z,51.90
2019-03-28T07:49:08.869Z,38.50
2019-03-28T07:51:37.301Z,31.87
2019-03-28T07:54:05.761Z,39.90
2019-03-28T07:56:34.215Z,36.37
2019-03-28T07:59:02.667Z,35.20
2019-03-28T08:01:31.087Z,36.90
2019-03-28T08:03:59.527Z,34.23
2019-03-28T08:06:27.979Z,29.57
2019-03-28T08:08:56.466Z,29.67
2019-03-28T08:11:24.962Z,31.13
2019-03-28T08:13:53.461Z,31.10
2019-03-28T08:16:21.938Z,37.63
2019-03-28T08:18:50.341Z,33.63
2019-03-28T08:21:18.785Z,33.93
2019-03-28T08:23:47.237Z,33.50
2019-03-28T08:26:15.681Z,30.10
2019-03-28T08:28:44.161Z,29.33
2019-03-28T08:31:12.658Z,29.50
2019-03-28T08:33:42.690Z,28.33
2019-03-28T08:36:11.659Z,24.30
2019-03-28T08:38:41.425Z,24.17
2019-03-28T08:41:09.925Z,27.07
2019-03-28T08:43:38.344Z,32.70
2019-03-28T08:46:08.774Z,24.13
2019-03-28T08:48:36.936Z,25.60
2019-03-28T08:51:05.517Z,24.23
2019-03-28T08:53:33.998Z,17.70
2019-03-28T08:56:02.438Z,22.43
2019-03-28T08:58:30.867Z,18.13
2019-03-28T09:00:59.471Z,16.77
2019-03-28T09:03:27.891Z,15.90
2019-03-28T09:05:56.397Z,18.60
2019-03-28T09:08:24.841Z,18.33
2019-03-28T09:10:53.310Z,22.70
2019-03-28T09:13:27.829Z,22.47
2019-03-28T09:15:56.337Z,17.40
2019-03-28T09:18:31.055Z,20.07
2019-03-28T09:20:59.571Z,20.97
2019-03-28T09:23:28.020Z,20.63
2019-03-28T09:26:16.125Z,19.30
2019-03-28T09:28:44.992Z,20.70
2019-03-28T09:31:19.837Z,18.57
2019-03-28T09:33:43.659Z,18.27
2019-03-28T09:36:12.097Z,21.93
2019-03-28T09:38:40.597Z,17.00
2019-03-28T09:41:09.201Z,16.80
2019-03-28T09:43:37.679Z,18.17
2019-03-28T09:46:06.254Z,23.80
2019-03-28T09:48:34.753Z,19.73
2019-03-28T09:51:03.203Z,22.60
2019-03-28T09:53:31.614Z,17.13
2019-03-28T09:56:00.214Z,17.17
2019-03-28T09:58:28.633Z,16.10
2019-03-28T10:01:03.111Z,17.73
2019-03-28T10:03:27.187Z,17.60
2019-03-28T10:05:55.621Z,13.80
2019-03-28T10:08:24.029Z,18.27
2019-03-28T10:10:52.457Z,24.33
2019-03-28T10:13:21.000Z,22.80
2019-03-28T10:15:49.494Z,23.43
2019-03-28T10:18:17.945Z,20.60
2019-03-28T10:20:46.396Z,18.70
2019-03-28T10:23:14.810Z,18.90
2019-03-28T10:25:44.656Z,17.43
2019-03-28T10:28:13.242Z,19.87
2019-03-28T10:30:44.139Z,21.93
2019-03-28T10:33:13.009Z,21.80
2019-03-28T10:35:41.454Z,18.63
2019-03-28T10:38:09.973Z,15.10
2019-03-28T10:40:38.474Z,31.60
2019-03-28T10:43:07.073Z,18.13
2019-03-28T10:45:35.572Z,16.77
2019-03-28T10:48:04.534Z,15.20
2019-03-28T10:50:40.874Z,16.77
2019-03-28T10:53:03.273Z,13.57
2019-03-28T10:55:31.809Z,15.43
2019-03-28T10:58:00.366Z,16.17
2019-03-28T11:00:29.090Z,15.07
2019-03-28T11:02:58.157Z,13.70
2019-03-28T11:05:26.653Z,14.73
2019-03-28T11:07:55.122Z,15.47
2019-03-28T11:10:23.665Z,14.90
2019-03-28T11:12:52.188Z,15.27
2019-03-28T11:15:20.801Z,17.73
2019-03-28T11:17:49.349Z,19.67
2019-03-28T11:20:17.805Z,20.60
2019-03-28T11:22:46.581Z,20.60
2019-03-28T11:25:15.264Z,17.93
2019-03-28T11:27:43.833Z,14.97
2019-03-28T11:30:12.797Z,16.53
2019-03-28T11:32:41.270Z,18.00
2019-03-28T11:35:10.632Z,17.00
2019-03-28T11:37:39.177Z,16.77
2019-03-28T11:40:09.262Z,14.93
2019-03-28T11:42:38.097Z,13.20
2019-03-28T11:45:09.639Z,15.80
2019-03-28T11:47:38.101Z,19.63
2019-03-28T11:50:11.250Z,15.63
2019-03-28T11:52:42.574Z,15.73
2019-03-28T11:55:10.184Z,14.87
2019-03-28T11:57:38.782Z,15.97
2019-03-28T12:00:11.316Z,14.37
2019-03-28T12:02:39.791Z,19.33
2019-03-28T12:05:08.681Z,15.93
2019-03-28T12:07:37.506Z,13.77
2019-03-28T12:10:08.288Z,14.50
2019-03-28T12:12:36.838Z,12.93
2019-03-28T12:15:08.337Z,14.80
2019-03-28T12:17:36.820Z,12.97
2019-03-28T12:20:07.922Z,11.13
2019-03-28T12:22:36.519Z,14.00
2019-03-28T12:25:08.109Z,12.17
2019-03-28T12:27:37.165Z,11.23
2019-03-28T12:30:10.906Z,15.00
2019-03-28T12:32:39.374Z,14.43
2019-03-28T12:35:09.296Z,10.77
2019-03-28T12:37:37.857Z,11.93
2019-03-28T12:40:08.045Z,12.23
2019-03-28T12:42:36.718Z,10.73
2019-03-28T12:45:10.142Z,11.93
2019-03-28T12:47:42.717Z,14.10
2019-03-28T12:50:10.109Z,10.37
2019-03-28T12:52:39.114Z,10.67
2019-03-28T12:55:08.211Z,11.93
2019-03-28T12:57:36.675Z,10.47
2019-03-28T13:00:10.749Z,11.20
2019-03-28T13:02:39.462Z,10.50
2019-03-28T13:05:27.252Z,13.10
2019-03-28T13:07:55.714Z,11.80
2019-03-28T13:10:24.248Z,14.00
2019-03-28T13:12:52.703Z,9.13
2019-03-28T13:15:21.212Z,11.50
2019-03-28T13:17:49.736Z,13.90
2019-03-28T13:20:18.174Z,9.60
2019-03-28T13:22:46.620Z,8.90
2019-03-28T13:25:15.100Z,10.13
2019-03-28T13:27:43.661Z,9.53
2019-03-28T13:30:14.415Z,8.67
2019-03-28T13:32:42.994Z,8.17
2019-03-28T13:35:11.585Z,8.43
2019-03-28T13:37:40.039Z,8.30
2019-03-28T13:40:09.987Z,10.30
2019-03-28T13:42:39.077Z,9.97
2019-03-28T13:45:09.536Z,11.97
2019-03-28T13:47:38.121Z,11.47
2019-03-28T13:50:08.812Z,7.13
2019-03-28T13:52:37.457Z,8.20
2019-03-28T13:55:07.157Z,11.33
2019-03-28T13:57:35.688Z,7.53
2019-03-28T14:00:06.631Z,7.63
2019-03-28T14:02:35.627Z,8.93
2019-03-28T14:05:07.584Z,8.20
2019-03-28T14:07:36.341Z,10.60
2019-03-28T14:10:07.511Z,9.40
2019-03-28T14:12:35.961Z,10.53
2019-03-28T14:15:07.150Z,8.60
2019-03-28T14:17:35.822Z,7.67
2019-03-28T14:20:06.058Z,8.70
2019-03-28T14:22:34.641Z,9.53
2019-03-28T14:25:03.562Z,9.00
2019-03-28T14:27:32.030Z,10.27
2019-03-28T14:30:00.585Z,6.63
2019-03-28T14:32:29.100Z,7.30
2019-03-28T14:34:57.557Z,10.03
2019-03-28T14:37:26.135Z,10.53
2019-03-28T14:39:54.673Z,7.40
2019-03-28T14:42:23.127Z,10.40
2019-03-28T14:44:51.931Z,7.07
2019-03-28T14:47:20.439Z,5.60
2019-03-28T14:49:48.967Z,7.93
2019-03-28T14:52:17.413Z,7.30
2019-03-28T14:54:45.878Z,8.50
2019-03-28T14:57:15.861Z,11.77
2019-03-28T14:59:44.390Z,7.90
2019-03-28T15:02:12.915Z,8.40
2019-03-28T15:04:41.397Z,7.47
2019-03-28T15:07:09.919Z,9.73
2019-03-28T15:09:38.373Z,7.47
2019-03-28T15:12:06.812Z,6.80
2019-03-28T15:14:35.274Z,10.20
2019-03-28T15:17:03.900Z,8.50
2019-03-28T15:19:32.503Z,8.37
2019-03-28T15:22:00.976Z,8.50
2019-03-28T15:24:29.481Z,8.07
2019-03-28T15:26:58.059Z,6.77
2019-03-28T15:29:26.559Z,6.27
2019-03-28T15:31:55.068Z,7.33
2019-03-28T15:34:23.531Z,6.00
2019-03-28T15:36:52.088Z,7.63
2019-03-28T15:39:20.605Z,6.00
2019-03-28T15:41:49.229Z,8.40
2019-03-28T15:44:17.773Z,8.60
2019-03-28T15:46:46.843Z,6.60
2019-03-28T15:49:15.314Z,7.47
2019-03-28T15:51:43.802Z,9.60
2019-03-28T15:54:12.320Z,7.87
2019-03-28T15:56:40.861Z,6.10
2019-03-28T15:59:09.393Z,7.63
2019-03-28T16:01:37.929Z,7.70
2019-03-28T16:04:06.525Z,8.13
2019-03-28T16:06:35.179Z,11.90
2019-03-28T16:09:05.265Z,7.33
2019-03-28T16:11:33.781Z,6.37
2019-03-28T16:14:04.867Z,6.40
2019-03-28T16:16:33.333Z,5.83
2019-03-28T16:19:02.006Z,6.20
2019-03-28T16:21:30.549Z,5.83
2019-03-28T16:23:59.279Z,9.70
2019-03-28T16:26:27.901Z,7.00
2019-03-28T16:28:56.688Z,5.50
2019-03-28T16:31:25.814Z,5.13
2019-03-28T16:34:06.148Z,7.23
2019-03-28T16:36:24.673Z,6.67
2019-03-28T16:38:53.185Z,6.67
2019-03-28T16:41:21.661Z,6.50
2019-03-28T16:43:50.104Z,6.70
2019-03-28T16:46:18.625Z,7.07
2019-03-28T16:48:47.065Z,8.90
2019-03-28T16:51:17.555Z,5.53
2019-03-28T16:53:45.678Z,7.67
2019-03-28T16:56:14.141Z,8.47
2019-03-28T16:58:42.597Z,6.60
2019-03-28T17:01:11.080Z,10.70
2019-03-28T17:03:39.594Z,7.30
2019-03-28T17:06:08.256Z,5.23
2019-03-28T17:08:36.829Z,5.63
2019-03-28T17:11:05.859Z,7.10
2019-03-28T17:13:34.485Z,5.73
2019-03-28T17:16:02.986Z,8.77
2019-03-28T17:18:31.666Z,9.57
2019-03-28T17:21:00.292Z,7.00
2019-03-28T17:23:29.015Z,8.37
2019-03-28T17:25:57.497Z,9.90
2019-03-28T17:28:26.061Z,8.73
2019-03-28T17:30:54.590Z,7.83
2019-03-28T17:33:23.129Z,7.83
2019-03-28T17:35:51.763Z,7.47
2019-03-28T17:38:20.422Z,7.03
2019-03-28T17:40:49.166Z,8.43
2019-03-28T17:43:17.711Z,6.50
2019-03-28T17:45:46.291Z,8.33
2019-03-28T17:48:14.809Z,8.30
2019-03-28T17:50:43.779Z,7.43
2019-03-28T17:53:13.113Z,6.87
2019-03-28T17:55:41.960Z,8.40
2019-03-28T17:58:10.574Z,7.07
2019-03-28T18:00:39.679Z,7.27
2019-03-28T18:03:09.703Z,6.33
2019-03-28T18:05:40.653Z,5.63
2019-03-28T18:08:08.629Z,5.03
2019-03-28T18:10:37.102Z,7.63
2019-03-28T18:13:05.648Z,6.87
2019-03-28T18:15:34.743Z,5.20
2019-03-28T18:18:03.333Z,3.80
2019-03-28T18:20:31.884Z,4.23
2019-03-28T18:23:00.361Z,4.87
2019-03-28T18:25:30.476Z,3.40
2019-03-28T18:27:59.161Z,4.33
2019-03-28T18:30:27.888Z,4.73
2019-03-28T18:32:56.405Z,3.10
2019-03-28T18:35:24.997Z,3.40
2019-03-28T18:37:53.490Z,5.13
2019-03-28T18:40:22.374Z,4.17
2019-03-28T18:42:51.156Z,5.73
2019-03-28T18:45:19.656Z,4.80
2019-03-28T18:47:48.369Z,3.60
2019-03-28T18:50:17.179Z,4.17
2019-03-28T18:52:45.818Z,4.67
2019-03-28T18:55:14.844Z,3.20
2019-03-28T18:57:43.345Z,2.23
2019-03-28T19:00:12.681Z,3.73
2019-03-28T19:02:41.309Z,3.30
2019-03-28T19:05:19.613Z,4.60
2019-03-28T19:07:40.338Z,3.30
2019-03-28T19:10:09.772Z,3.57
2019-03-28T19:12:38.240Z,3.13
2019-03-28T19:15:08.225Z,3.73
2019-03-28T19:17:37.386Z,3.43
2019-03-28T19:20:09.817Z,9.70
2019-03-28T19:22:38.513Z,7.73
2019-03-28T19:25:08.750Z,3.37
2019-03-28T19:27:38.052Z,3.87
2019-03-28T19:30:07.659Z,5.07
2019-03-28T19:32:36.110Z,3.30
2019-03-28T19:35:07.285Z,2.37
2019-03-28T19:37:36.999Z,2.80
2019-03-28T19:40:08.365Z,3.83
2019-03-28T19:42:36.978Z,4.70
2019-03-28T19:45:06.994Z,3.20
2019-03-28T19:47:35.579Z,3.93
2019-03-28T19:50:06.863Z,2.63
2019-03-28T19:52:35.642Z,3.03
2019-03-28T19:55:05.697Z,3.97
2019-03-28T19:57:34.226Z,3.07
2019-03-28T20:00:03.379Z,2.97
2019-03-28T20:02:31.885Z,3.57
2019-03-28T20:05:00.737Z,2.90
2019-03-28T20:07:30.884Z,3.40
2019-03-28T20:09:59.416Z,4.00
2019-03-28T20:12:27.945Z,4.07
2019-03-28T20:15:00.149Z,4.03
2019-03-28T20:17:28.071Z,2.77
2019-03-28T20:19:56.593Z,6.20
2019-03-28T20:22:25.091Z,3.03
2019-03-28T20:24:53.640Z,4.00
2019-03-28T20:27:22.987Z,3.43
2019-03-28T20:29:51.614Z,3.97
2019-03-28T20:32:20.727Z,6.63
2019-03-28T20:34:49.361Z,4.33
2019-03-28T20:37:17.997Z,3.10
2019-03-28T20:39:46.525Z,4.42
2019-03-28T20:42:15.041Z,5.40
2019-03-28T20:44:44.700Z,4.50
2019-03-28T20:47:13.384Z,4.83
2019-03-28T20:49:41.968Z,4.35
2019-03-28T20:52:10.450Z,4.08
2019-03-28T20:54:38.981Z,3.50
2019-03-28T20:57:07.493Z,4.47
2019-03-28T20:59:35.944Z,5.53
2019-03-28T21:02:04.754Z,4.20
2019-03-28T21:04:34.376Z,4.43
2019-03-28T21:07:03.560Z,5.47
2019-03-28T21:09:32.080Z,4.33
2019-03-28T21:12:01.152Z,4.53
2019-03-28T21:14:29.652Z,4.70
2019-03-28T21:16:58.447Z,4.63
2019-03-28T21:19:27.144Z,5.50
2019-03-28T21:21:55.624Z,5.23
2019-03-28T21:24:24.022Z,5.65
2019-03-28T21:27:11.804Z,5.53
2019-03-28T21:29:48.931Z,7.73
2019-03-28T21:32:10.453Z,5.57
2019-03-28T21:34:38.860Z,6.07
2019-03-28T21:37:07.354Z,12.00
2019-03-28T21:39:35.824Z,6.00
2019-03-28T21:42:07.094Z,6.57
2019-03-28T21:44:34.673Z,8.03
2019-03-28T21:47:03.097Z,6.75
2019-03-28T21:49:31.507Z,7.65
2019-03-28T21:51:59.917Z,6.30
2019-03-28T21:54:28.474Z,6.60
2019-03-28T21:56:57.274Z,7.12
2019-03-28T21:59:25.690Z,7.03
2019-03-28T22:01:54.111Z,8.48
2019-03-28T22:04:22.538Z,10.33
2019-03-28T22:06:50.972Z,8.63
2019-03-28T22:09:19.395Z,9.63
2019-03-28T22:11:47.815Z,8.60
2019-03-28T22:14:16.662Z,7.30
2019-03-28T22:16:45.078Z,7.60
2019-03-28T22:19:13.509Z,9.13
2019-03-28T22:21:41.941Z,10.30
2019-03-28T22:24:10.393Z,10.28
2019-03-28T22:26:38.939Z,10.63
2019-03-28T22:29:07.366Z,7.93
2019-03-28T22:31:35.793Z,8.78
2019-03-28T22:34:04.219Z,9.68
2019-03-28T22:36:32.629Z,8.30
2019-03-28T22:39:01.373Z,9.13
2019-03-28T22:41:31.318Z,7.93
2019-03-28T22:43:59.770Z,9.35
2019-03-28T22:46:28.187Z,10.72
2019-03-28T22:48:56.623Z,10.80
2019-03-28T22:51:25.047Z,8.20
2019-03-28T22:53:53.518Z,8.68
2019-03-28T22:56:21.944Z,9.80
2019-03-28T22:58:50.343Z,8.78
2019-03-28T23:01:18.837Z,8.65
2019-03-28T23:03:47.321Z,11.10
2019-03-28T23:06:15.740Z,8.93
2019-03-28T23:08:44.173Z,10.05
2019-03-28T23:11:13.854Z,10.40
2019-03-28T23:13:42.429Z,11.78
2019-03-28T23:16:10.854Z,9.80
2019-03-28T23:18:39.979Z,9.30
2019-03-28T23:21:08.636Z,10.15
2019-03-28T23:23:37.045Z,9.65
2019-03-28T23:26:05.513Z,10.10
2019-03-28T23:28:33.928Z,9.40
2019-03-28T23:31:02.687Z,9.05
2019-03-28T23:33:31.124Z,18.52
2019-03-28T23:35:59.517Z,12.75
2019-03-28T23:38:28.068Z,10.32
2019-03-28T23:40:56.501Z,10.30
2019-03-28T23:43:25.020Z,9.80
2019-03-28T23:45:53.433Z,13.48
2019-03-28T23:48:22.316Z,11.97
2019-03-28T23:50:50.735Z,10.95
2019-03-28T23:53:19.426Z,14.35
2019-03-28T23:55:47.841Z,13.08
2019-03-28T23:58:16.259Z,10.75
